createdAt,value
2019-05-10T00:00:30.822Z,100.00
2019-05-10T00:03:19.397Z,100.00
2019-05-10T00:06:06.775Z,100.00
2019-05-10T00:08:47.494Z,100.00
2019-05-10T00:11:41.349Z,100.00
2019-05-10T00:14:33.623Z,100.00
2019-05-10T00:17:28.555Z,100.00
2019-05-10T00:19:58.069Z,100.00
2019-05-10T00:22:27.597Z,100.00
2019-05-10T00:25:03.951Z,100.00
2019-05-10T00:27:28.295Z,100.00
2019-05-10T00:29:57.855Z,100.00
2019-05-10T00:32:27.337Z,100.00
2019-05-10T00:34:56.869Z,100.00
2019-05-10T00:37:26.299Z,100.00
2019-05-10T00:39:55.814Z,100.00
2019-05-10T00:42:25.247Z,100.00
2019-05-10T00:44:54.788Z,100.00
2019-05-10T00:47:24.213Z,100.00
2019-05-10T00:49:53.697Z,100.00
2019-05-10T00:52:23.175Z,100.00
2019-05-10T00:54:52.737Z,100.00
2019-05-10T00:57:22.136Z,100.00
2019-05-10T00:59:51.629Z,100.00
2019-05-10T01:02:21.166Z,100.00
2019-05-10T01:04:50.632Z,100.00
2019-05-10T01:07:20.102Z,100.00
2019-05-10T01:09:49.573Z,100.00
2019-05-10T01:12:19.052Z,100.00
2019-05-10T01:14:48.550Z,100.00
2019-05-10T01:17:17.989Z,100.00
2019-05-10T01:19:47.558Z,100.00
2019-05-10T01:22:17.065Z,100.00
2019-05-10T01:24:46.648Z,100.00
2019-05-10T01:27:16.161Z,100.00
2019-05-10T01:29:45.686Z,100.00
2019-05-10T01:32:15.294Z,100.00
2019-05-10T01:34:44.797Z,100.00
2019-05-10T01:37:14.283Z,100.00
2019-05-10T01:39:43.753Z,100.00
2019-05-10T01:42:13.227Z,100.00
2019-05-10T01:44:42.922Z,100.00
2019-05-10T01:47:12.448Z,100.00
2019-05-10T01:49:41.894Z,100.00
2019-05-10T01:52:11.284Z,100.00
2019-05-10T01:54:40.780Z,100.00
2019-05-10T01:57:10.265Z,100.00
2019-05-10T01:59:39.751Z,100.00
2019-05-10T02:02:09.299Z,100.00
2019-05-10T02:04:38.824Z,100.00
2019-05-10T02:07:08.212Z,100.00
2019-05-10T02:09:37.696Z,100.00
2019-05-10T02:12:07.180Z,100.00
2019-05-10T02:14:36.615Z,100.00
2019-05-10T02:17:06.122Z,100.00
2019-05-10T02:19:35.572Z,100.00
2019-05-10T02:22:05.057Z,100.00
2019-05-10T02:24:34.638Z,100.00
2019-05-10T02:27:04.029Z,100.00
2019-05-10T02:29:33.467Z,100.00
2019-05-10T02:32:02.996Z,100.00
2019-05-10T02:34:32.767Z,100.00
2019-05-10T02:37:02.152Z,100.00
2019-05-10T02:39:31.705Z,100.00
2019-05-10T02:42:01.793Z,100.00
2019-05-10T02:44:31.207Z,100.00
2019-05-10T02:47:00.649Z,100.00
2019-05-10T02:49:30.171Z,100.00
2019-05-10T02:51:59.658Z,100.00
2019-05-10T02:54:29.219Z,100.00
2019-05-10T02:56:59.511Z,100.00
2019-05-10T02:59:29.855Z,100.00
2019-05-10T03:02:00.825Z,100.00
2019-05-10T03:04:30.558Z,100.00
2019-05-10T03:07:07.359Z,100.00
2019-05-10T03:09:36.898Z,100.00
2019-05-10T03:12:26.668Z,100.00
2019-05-10T03:14:57.962Z,100.00
2019-05-10T03:17:28.666Z,100.00
2019-05-10T03:19:59.708Z,100.00
2019-05-10T03:22:29.144Z,100.00
2019-05-10T03:24:58.703Z,100.00
2019-05-10T03:27:28.220Z,100.00
2019-05-10T03:29:57.653Z,100.00
2019-05-10T03:32:27.116Z,100.00
2019-05-10T03:34:56.614Z,100.00
2019-05-10T03:37:26.456Z,100.00
2019-05-10T03:39:55.876Z,100.00
2019-05-10T03:42:25.407Z,100.00
2019-05-10T03:44:54.931Z,100.00
2019-05-10T03:47:24.427Z,100.00
2019-05-10T03:49:53.882Z,100.00
2019-05-10T03:52:23.265Z,100.00
2019-05-10T03:54:52.723Z,100.00
2019-05-10T03:57:22.237Z,100.00
2019-05-10T03:59:51.808Z,100.00
2019-05-10T04:02:21.287Z,100.00
2019-05-10T04:04:50.755Z,100.00
2019-05-10T04:07:20.182Z,100.00
2019-05-10T04:09:49.685Z,100.00
2019-05-10T04:12:19.210Z,100.00
2019-05-10T04:14:48.754Z,100.00
2019-05-10T04:17:18.145Z,100.00
2019-05-10T04:19:47.631Z,100.00
2019-05-10T04:22:17.118Z,100.00
2019-05-10T04:24:46.555Z,100.00
2019-05-10T04:27:30.661Z,100.00
2019-05-10T04:29:47.189Z,100.00
2019-05-10T04:32:16.693Z,100.00
2019-05-10T04:34:46.183Z,100.00
2019-05-10T04:37:16.106Z,100.00
2019-05-10T04:39:45.591Z,99.84
2019-05-10T04:42:15.241Z,96.92
2019-05-10T04:44:44.706Z,95.52
2019-05-10T04:47:14.193Z,96.47
2019-05-10T04:49:43.653Z,96.08
2019-05-10T04:52:14.381Z,95.65
2019-05-10T04:54:43.838Z,93.95
2019-05-10T04:57:13.364Z,94.33
2019-05-10T04:59:42.798Z,94.33
2019-05-10T05:02:12.191Z,94.93
2019-05-10T05:04:41.665Z,94.60
2019-05-10T05:07:11.354Z,94.60
2019-05-10T05:09:40.786Z,93.33
2019-05-10T05:12:10.409Z,93.33
2019-05-10T05:14:39.861Z,94.38
2019-05-10T05:17:09.349Z,94.38
2019-05-10T05:19:40.879Z,93.94
2019-05-10T05:22:10.025Z,93.39
2019-05-10T05:24:39.470Z,90.37
2019-05-10T05:27:08.896Z,88.55
2019-05-10T05:29:38.361Z,86.45
2019-05-10T05:32:18.239Z,86.39
2019-05-10T05:34:47.680Z,86.04
2019-05-10T05:37:17.080Z,85.57
2019-05-10T05:39:46.566Z,84.28
2019-05-10T05:42:16.086Z,85.71
2019-05-10T05:44:45.525Z,84.68
2019-05-10T05:47:14.982Z,83.46
2019-05-10T05:49:44.478Z,82.42
2019-05-10T05:52:13.961Z,82.95
2019-05-10T05:54:43.432Z,81.76
2019-05-10T05:57:12.859Z,82.27
2019-05-10T05:59:42.319Z,82.75
2019-05-10T06:02:11.805Z,83.50
2019-05-10T06:04:46.154Z,84.62
2019-05-10T06:07:12.497Z,86.53
2019-05-10T06:09:42.096Z,88.18
2019-05-10T06:12:12.617Z,88.64
2019-05-10T06:14:48.910Z,89.26
2019-05-10T06:17:14.163Z,88.92
2019-05-10T06:19:43.587Z,89.42
2019-05-10T06:22:12.984Z,90.95
2019-05-10T06:24:46.661Z,89.72
2019-05-10T06:27:13.723Z,89.81
2019-05-10T06:29:43.338Z,89.31
2019-05-10T06:32:12.782Z,89.13
2019-05-10T06:34:42.244Z,90.15
2019-05-10T06:37:11.841Z,88.60
2019-05-10T06:39:41.298Z,89.70
2019-05-10T06:42:10.736Z,88.47
2019-05-10T06:44:40.173Z,88.47
2019-05-10T06:47:11.339Z,88.29
2019-05-10T06:49:50.488Z,87.05
2019-05-10T06:52:15.899Z,85.82
2019-05-10T06:54:43.428Z,85.40
2019-05-10T06:57:17.660Z,85.13
2019-05-10T06:59:44.100Z,84.69
2019-05-10T07:02:13.637Z,85.68
2019-05-10T07:04:43.071Z,85.12
2019-05-10T07:07:22.119Z,85.12
2019-05-10T07:10:04.150Z,85.34
2019-05-10T07:12:17.783Z,83.20
2019-05-10T07:14:46.750Z,83.14
2019-05-10T07:17:16.392Z,83.14
2019-05-10T07:19:53.560Z,83.84
2019-05-10T07:22:21.785Z,82.23
2019-05-10T07:24:48.200Z,81.24
2019-05-10T07:27:17.671Z,80.36
2019-05-10T07:29:47.111Z,79.46
2019-05-10T07:32:21.769Z,78.92
2019-05-10T07:34:48.838Z,77.15
2019-05-10T07:37:19.804Z,77.00
2019-05-10T07:39:49.217Z,73.91
2019-05-10T07:42:18.622Z,72.24
2019-05-10T07:44:48.810Z,72.26
2019-05-10T07:47:18.599Z,71.43
2019-05-10T07:49:48.023Z,72.27
2019-05-10T07:52:17.437Z,69.81
2019-05-10T07:54:47.835Z,70.84
2019-05-10T07:57:18.754Z,72.08
2019-05-10T07:59:51.119Z,73.10
2019-05-10T08:02:19.762Z,74.03
2019-05-10T08:04:53.017Z,74.50
2019-05-10T08:07:20.433Z,74.65
2019-05-10T08:09:49.906Z,71.16
2019-05-10T08:12:19.611Z,71.76
2019-05-10T08:14:53.393Z,68.53
2019-05-10T08:17:20.502Z,67.25
2019-05-10T08:19:49.931Z,71.17
2019-05-10T08:22:19.352Z,72.38
2019-05-10T08:24:54.487Z,72.72
2019-05-10T08:27:20.016Z,71.46
2019-05-10T08:29:52.880Z,68.99
2019-05-10T08:32:25.553Z,66.91
2019-05-10T08:34:55.573Z,66.13
2019-05-10T08:37:33.083Z,65.53
2019-05-10T08:39:56.055Z,65.62
2019-05-10T08:42:40.810Z,62.49
2019-05-10T08:45:03.755Z,58.96
2019-05-10T08:47:28.093Z,57.50
2019-05-10T08:50:12.137Z,58.14
2019-05-10T08:52:31.674Z,57.93
2019-05-10T08:55:02.484Z,58.47
2019-05-10T08:57:34.879Z,60.44
2019-05-10T09:00:08.481Z,58.92
2019-05-10T09:02:33.618Z,59.46
2019-05-10T09:05:03.106Z,57.96
2019-05-10T09:07:36.985Z,58.34
2019-05-10T09:10:04.246Z,59.23
2019-05-10T09:12:33.724Z,58.74
2019-05-10T09:15:09.690Z,58.94
2019-05-10T09:17:34.302Z,55.57
2019-05-10T09:20:03.981Z,56.00
2019-05-10T09:22:38.373Z,54.87
2019-05-10T09:25:05.091Z,53.63
2019-05-10T09:27:34.718Z,53.77
2019-05-10T09:30:08.212Z,51.85
2019-05-10T09:32:35.456Z,52.65
2019-05-10T09:35:07.614Z,53.28
2019-05-10T09:37:36.161Z,51.88
2019-05-10T09:40:09.862Z,52.69
2019-05-10T09:42:40.184Z,53.33
2019-05-10T09:45:09.831Z,50.21
2019-05-10T09:47:39.460Z,50.06
2019-05-10T09:50:09.192Z,50.28
2019-05-10T09:52:38.627Z,50.54
2019-05-10T09:55:12.470Z,51.40
2019-05-10T09:57:39.377Z,51.07
2019-05-10T10:00:10.720Z,52.25
2019-05-10T10:02:40.618Z,53.74
2019-05-10T10:05:10.632Z,54.08
2019-05-10T10:07:40.050Z,52.75
2019-05-10T10:10:12.816Z,53.41
2019-05-10T10:12:41.129Z,53.68
2019-05-10T10:15:18.634Z,54.19
2019-05-10T10:17:42.615Z,53.53
2019-05-10T10:20:12.317Z,53.97
2019-05-10T10:22:43.413Z,53.85
2019-05-10T10:25:13.076Z,53.37
2019-05-10T10:27:42.474Z,51.25
2019-05-10T10:30:17.772Z,51.12
2019-05-10T10:32:44.629Z,51.49
2019-05-10T10:35:20.546Z,50.68
2019-05-10T10:37:47.617Z,51.28
2019-05-10T10:40:18.313Z,51.75
2019-05-10T10:42:48.717Z,51.17
2019-05-10T10:45:18.596Z,51.47
2019-05-10T10:47:48.095Z,51.38
2019-05-10T10:50:18.326Z,48.88
2019-05-10T10:52:47.780Z,49.50
2019-05-10T10:55:18.736Z,49.39
2019-05-10T10:57:48.366Z,51.28
2019-05-10T11:00:23.687Z,51.93
2019-05-10T11:02:53.736Z,52.48
2019-05-10T11:05:23.276Z,51.82
2019-05-10T11:07:52.796Z,51.94
2019-05-10T11:10:28.092Z,51.89
2019-05-10T11:13:02.746Z,49.99
2019-05-10T11:15:35.528Z,47.79
2019-05-10T11:18:00.586Z,48.96
2019-05-10T11:20:31.749Z,48.24
2019-05-10T11:23:01.506Z,49.00
2019-05-10T11:25:31.005Z,47.81
2019-05-10T11:28:01.699Z,47.20
2019-05-10T11:30:32.555Z,46.75
2019-05-10T11:33:02.204Z,47.85
2019-05-10T11:35:34.461Z,47.28
2019-05-10T11:38:06.725Z,46.46
2019-05-10T11:40:35.235Z,46.58
2019-05-10T11:43:05.004Z,47.21
2019-05-10T11:45:35.287Z,47.12
2019-05-10T11:48:05.998Z,46.65
2019-05-10T11:50:35.799Z,47.16
2019-05-10T11:53:06.992Z,46.51
2019-05-10T11:55:40.250Z,47.46
2019-05-10T11:58:12.243Z,47.06
2019-05-10T12:00:41.201Z,46.91
2019-05-10T12:03:15.544Z,45.69
2019-05-10T12:05:42.558Z,46.34
2019-05-10T12:08:13.231Z,46.92
2019-05-10T12:10:53.030Z,47.34
2019-05-10T12:13:19.405Z,46.63
2019-05-10T12:15:45.225Z,47.16
2019-05-10T12:18:15.188Z,46.59
2019-05-10T12:20:54.849Z,46.71
2019-05-10T12:23:23.129Z,45.82
2019-05-10T12:26:19.913Z,46.00
2019-05-10T12:28:23.975Z,46.45
2019-05-10T12:30:51.112Z,46.93
2019-05-10T12:33:25.247Z,46.28
2019-05-10T12:35:51.974Z,44.90
2019-05-10T12:38:23.526Z,43.82
2019-05-10T12:40:52.586Z,43.17
2019-05-10T12:43:22.198Z,42.65
2019-05-10T12:45:51.961Z,43.43
2019-05-10T12:48:23.625Z,42.69
2019-05-10T12:50:57.970Z,43.62
2019-05-10T12:53:23.989Z,43.51
2019-05-10T12:55:53.392Z,43.16
2019-05-10T12:58:22.839Z,42.80
2019-05-10T13:00:53.302Z,42.64
2019-05-10T13:03:25.435Z,43.08
2019-05-10T13:05:54.894Z,42.19
2019-05-10T13:08:24.310Z,43.38
2019-05-10T13:10:53.819Z,43.18
2019-05-10T13:13:29.296Z,42.21
2019-05-10T13:15:54.464Z,39.33
2019-05-10T13:18:48.229Z,38.22
2019-05-10T13:20:55.110Z,36.99
2019-05-10T13:23:24.721Z,38.03
2019-05-10T13:25:54.143Z,37.93
2019-05-10T13:28:23.565Z,37.72
2019-05-10T13:30:53.065Z,37.32
2019-05-10T13:33:28.856Z,37.34
2019-05-10T13:35:56.413Z,39.16
2019-05-10T13:38:24.891Z,40.03
2019-05-10T13:40:54.373Z,40.02
2019-05-10T13:43:26.647Z,40.00
2019-05-10T13:45:55.046Z,40.09
2019-05-10T13:48:26.367Z,40.43
2019-05-10T13:50:55.843Z,40.96
2019-05-10T13:53:25.336Z,41.36
2019-05-10T13:55:54.736Z,41.24
2019-05-10T13:58:24.167Z,40.99
2019-05-10T14:00:53.649Z,38.92
2019-05-10T14:03:23.028Z,38.90
2019-05-10T14:05:52.604Z,39.31
2019-05-10T14:08:22.094Z,39.69
2019-05-10T14:10:55.918Z,40.14
2019-05-10T14:13:22.667Z,40.92
2019-05-10T14:15:52.133Z,41.73
2019-05-10T14:18:21.648Z,42.26
2019-05-10T14:20:51.090Z,42.60
2019-05-10T14:23:20.481Z,42.22
2019-05-10T14:25:50.006Z,42.45
2019-05-10T14:28:19.532Z,42.00
2019-05-10T14:30:57.200Z,40.60
2019-05-10T14:33:20.026Z,39.15
2019-05-10T14:35:49.546Z,39.34
2019-05-10T14:38:22.553Z,39.68
2019-05-10T14:40:50.159Z,40.15
2019-05-10T14:43:19.759Z,39.10
2019-05-10T14:45:49.055Z,39.19
2019-05-10T14:48:28.001Z,39.07
2019-05-10T14:50:49.705Z,39.56
2019-05-10T14:53:19.976Z,38.54
2019-05-10T14:55:50.434Z,37.84
2019-05-10T14:58:19.933Z,36.87
2019-05-10T15:00:49.583Z,36.11
2019-05-10T15:03:19.061Z,36.66
2019-05-10T15:05:54.039Z,36.98
2019-05-10T15:08:18.956Z,36.46
2019-05-10T15:10:48.518Z,36.59
2019-05-10T15:13:19.531Z,36.75
2019-05-10T15:15:49.531Z,36.51
2019-05-10T15:18:18.915Z,36.24
2019-05-10T15:20:48.512Z,37.08
2019-05-10T15:23:17.910Z,36.99
2019-05-10T15:25:56.524Z,36.87
2019-05-10T15:28:18.752Z,37.46
2019-05-10T15:30:52.357Z,38.60
2019-05-10T15:33:19.241Z,39.25
2019-05-10T15:35:51.985Z,40.29
2019-05-10T15:38:19.953Z,41.51
2019-05-10T15:40:49.374Z,42.92
2019-05-10T15:43:19.142Z,44.46
2019-05-10T15:45:52.336Z,44.84
2019-05-10T15:48:19.917Z,45.70
2019-05-10T15:50:49.337Z,46.38
2019-05-10T15:53:24.805Z,46.82
2019-05-10T15:55:49.939Z,46.87
2019-05-10T15:58:19.562Z,47.29
2019-05-10T16:00:50.146Z,47.33
2019-05-10T16:03:19.613Z,47.57
2019-05-10T16:06:00.470Z,46.21
2019-05-10T16:08:24.056Z,45.83
2019-05-10T16:10:51.377Z,45.50
2019-05-10T16:13:24.725Z,45.91
2019-05-10T16:15:57.631Z,46.23
2019-05-10T16:18:23.123Z,46.56
2019-05-10T16:20:52.639Z,47.16
2019-05-10T16:23:22.106Z,47.57
2019-05-10T16:25:51.691Z,47.80
2019-05-10T16:28:22.943Z,47.92
2019-05-10T16:30:52.331Z,48.31
2019-05-10T16:33:21.812Z,48.54
2019-05-10T16:35:52.050Z,48.00
2019-05-10T16:38:21.706Z,47.99
2019-05-10T16:40:58.549Z,47.94
2019-05-10T16:43:24.979Z,48.47
2019-05-10T16:45:54.488Z,48.16
2019-05-10T16:48:28.083Z,48.89
2019-05-10T16:50:55.821Z,48.47
2019-05-10T16:53:25.205Z,48.25
2019-05-10T16:55:54.703Z,48.92
2019-05-10T16:58:24.240Z,49.37
2019-05-10T17:00:53.624Z,49.78
2019-05-10T17:03:23.043Z,49.84
2019-05-10T17:05:53.927Z,50.10
2019-05-10T17:08:23.779Z,50.08
2019-05-10T17:10:53.186Z,50.21
2019-05-10T17:13:22.603Z,50.82
2019-05-10T17:15:52.086Z,50.96
2019-05-10T17:18:23.997Z,51.10
2019-05-10T17:20:52.894Z,51.38
2019-05-10T17:23:22.379Z,51.30
2019-05-10T17:25:51.777Z,51.62
2019-05-10T17:28:21.360Z,51.48
2019-05-10T17:30:51.244Z,51.82
2019-05-10T17:33:21.034Z,51.58
2019-05-10T17:35:52.168Z,51.62
2019-05-10T17:38:22.196Z,51.56
2019-05-10T17:40:51.688Z,51.44
2019-05-10T17:43:22.860Z,51.51
2019-05-10T17:45:52.370Z,51.62
2019-05-10T17:48:21.768Z,51.79
2019-05-10T17:50:51.590Z,52.26
2019-05-10T17:53:21.086Z,52.50
2019-05-10T17:55:55.710Z,52.85
2019-05-10T17:58:21.755Z,53.06
2019-05-10T18:00:51.285Z,53.02
2019-05-10T18:03:20.791Z,53.02
2019-05-10T18:05:53.349Z,53.78
2019-05-10T18:08:21.707Z,53.85
2019-05-10T18:10:51.127Z,53.62
2019-05-10T18:13:20.559Z,53.43
2019-05-10T18:15:50.050Z,53.43
2019-05-10T18:18:19.582Z,53.40
2019-05-10T18:20:49.017Z,53.27
2019-05-10T18:23:21.084Z,53.30
2019-05-10T18:26:00.368Z,53.60
2019-05-10T18:28:29.904Z,53.97
2019-05-10T18:30:59.294Z,54.54
2019-05-10T18:33:28.748Z,54.69
2019-05-10T18:35:58.324Z,54.69
2019-05-10T18:38:30.957Z,54.14
2019-05-10T18:40:58.976Z,54.21
2019-05-10T18:43:28.363Z,54.02
2019-05-10T18:46:01.225Z,54.34
2019-05-10T18:48:29.098Z,54.24
2019-05-10T18:50:58.507Z,54.27
2019-05-10T18:53:27.928Z,54.30
2019-05-10T18:55:57.468Z,54.31
2019-05-10T18:58:29.096Z,54.48
2019-05-10T19:01:00.711Z,54.94
2019-05-10T19:03:33.857Z,55.14
2019-05-10T19:06:04.060Z,54.89
2019-05-10T19:08:31.771Z,55.03
2019-05-10T19:11:01.671Z,54.83
2019-05-10T19:13:34.307Z,54.78
2019-05-10T19:16:03.398Z,55.37
2019-05-10T19:18:32.967Z,55.25
2019-05-10T19:21:02.602Z,55.19
2019-05-10T19:23:32.658Z,55.39
2019-05-10T19:26:02.611Z,55.14
2019-05-10T19:28:32.035Z,55.42
2019-05-10T19:31:01.571Z,55.43
2019-05-10T19:33:36.376Z,55.23
2019-05-10T19:36:02.252Z,55.40
2019-05-10T19:38:33.983Z,55.51
2019-05-10T19:41:03.515Z,56.00
2019-05-10T19:43:33.029Z,55.97
2019-05-10T19:46:02.497Z,55.56
2019-05-10T19:48:35.583Z,55.84
2019-05-10T19:51:09.471Z,55.86
2019-05-10T19:53:36.610Z,56.11
2019-05-10T19:56:05.513Z,56.10
2019-05-10T19:58:34.931Z,55.90
2019-05-10T20:01:04.475Z,55.74
2019-05-10T20:03:33.898Z,56.07
2019-05-10T20:06:03.387Z,55.94
2019-05-10T20:08:32.922Z,56.06
2019-05-10T20:11:02.463Z,56.46
2019-05-10T20:13:31.866Z,56.58
2019-05-10T20:16:01.715Z,56.59
2019-05-10T20:18:31.789Z,56.60
2019-05-10T20:21:01.229Z,56.89
2019-05-10T20:23:30.642Z,57.38
2019-05-10T20:26:00.338Z,57.19
2019-05-10T20:28:29.854Z,57.39
2019-05-10T20:30:59.298Z,57.26
2019-05-10T20:33:28.702Z,57.12
2019-05-10T20:35:58.230Z,57.25
2019-05-10T20:38:27.761Z,57.58
2019-05-10T20:40:57.158Z,57.62
2019-05-10T20:43:26.653Z,57.62
2019-05-10T20:45:56.081Z,57.69
2019-05-10T20:48:25.606Z,57.74
2019-05-10T20:50:55.135Z,58.09
2019-05-10T20:53:24.691Z,57.75
2019-05-10T20:55:54.162Z,57.99
2019-05-10T20:58:23.566Z,58.22
2019-05-10T21:00:53.185Z,58.40
2019-05-10T21:03:22.695Z,58.36
2019-05-10T21:05:54.387Z,58.71
2019-05-10T21:08:23.829Z,59.34
2019-05-10T21:10:53.314Z,59.19
2019-05-10T21:13:22.821Z,59.19
2019-05-10T21:15:52.259Z,59.37
2019-05-10T21:18:21.675Z,59.36
2019-05-10T21:20:53.231Z,59.97
2019-05-10T21:23:22.674Z,59.88
2019-05-10T21:25:52.535Z,60.18
2019-05-10T21:28:22.031Z,60.42
2019-05-10T21:30:53.640Z,60.43
2019-05-10T21:33:22.740Z,60.84
2019-05-10T21:35:52.353Z,60.89
2019-05-10T21:38:32.474Z,60.98
2019-05-10T21:40:53.012Z,61.11
2019-05-10T21:43:22.413Z,61.19
2019-05-10T21:45:51.958Z,61.62
2019-05-10T21:48:21.450Z,61.69
2019-05-10T21:50:50.936Z,62.18
2019-05-10T21:53:20.375Z,62.39
2019-05-10T21:55:49.867Z,62.62
2019-05-10T21:58:19.354Z,63.03
2019-05-10T22:00:52.369Z,63.13
2019-05-10T22:03:21.982Z,63.08
2019-05-10T22:05:51.474Z,63.11
2019-05-10T22:08:21.091Z,63.04
2019-05-10T22:10:50.583Z,63.00
2019-05-10T22:13:20.081Z,62.85
2019-05-10T22:15:50.619Z,63.08
2019-05-10T22:18:20.101Z,63.05
2019-05-10T22:20:49.664Z,63.09
2019-05-10T22:23:19.194Z,62.98
2019-05-10T22:25:48.706Z,63.11
2019-05-10T22:28:18.110Z,63.18
2019-05-10T22:30:47.634Z,63.34
2019-05-10T22:33:17.135Z,63.30
2019-05-10T22:35:46.536Z,63.30
2019-05-10T22:38:15.987Z,63.04
2019-05-10T22:40:45.479Z,63.25
2019-05-10T22:43:14.889Z,63.23
2019-05-10T22:45:44.436Z,63.40
2019-05-10T22:48:13.939Z,63.40
2019-05-10T22:50:43.455Z,63.25
2019-05-10T22:53:12.925Z,63.12
2019-05-10T22:55:42.418Z,62.82
2019-05-10T22:58:11.913Z,62.23
2019-05-10T23:00:41.371Z,61.99
2019-05-10T23:03:10.885Z,62.01
2019-05-10T23:05:40.390Z,61.69
2019-05-10T23:08:09.921Z,60.98
2019-05-10T23:10:39.405Z,60.32
2019-05-10T23:13:08.817Z,59.74
2019-05-10T23:15:38.467Z,59.25
2019-05-10T23:18:07.986Z,59.20
2019-05-10T23:20:37.386Z,58.73
2019-05-10T23:23:06.925Z,58.26
2019-05-10T23:25:36.327Z,58.11
2019-05-10T23:28:05.734Z,58.23
2019-05-10T23:30:35.262Z,58.17
2019-05-10T23:33:06.139Z,58.18
2019-05-10T23:35:35.683Z,58.16
2019-05-10T23:38:05.237Z,58.23
2019-05-10T23:40:34.773Z,57.77
2019-05-10T23:43:04.297Z,57.78
2019-05-10T23:45:33.938Z,58.16
2019-05-10T23:48:03.466Z,58.07
2019-05-10T23:50:33.049Z,57.80
2019-05-10T23:53:02.612Z,57.93
2019-05-10T23:55:32.121Z,57.78
2019-05-10T23:58:01.632Z,57.97
